Time;durP1;ratioP1;P1;durP2;ratioP2;P2;SDS_P1;SDS_P2;PMS_P1;PMS_P2;Temp;Humidity;BMP_temperature;BMP_pressure;BME280_temperature;BME280_humidity;BME280_pressure;Samples;Min_cycle;Max_cycle;Signal;HPM_P1;HPM_P2
2023/08/24 00:00:50;;;;;;;5.32;2.50;;;18.00;99.90;;;;;;5060726;28;20508;-70
2023/08/24 00:03:16;;;;;;;5.15;2.40;;;17.90;99.90;;;;;;5063047;28;20048;-71
2023/08/24 00:05:42;;;;;;;3.78;2.25;;;17.90;99.90;;;;;;5078648;28;20044;-71
2023/08/24 00:08:09;;;;;;;5.18;2.25;;;17.90;99.90;;;;;;5080986;28;20052;-70
2023/08/24 00:10:36;;;;;;;5.30;2.30;;;18.00;99.90;;;;;;5044872;28;20057;-71
2023/08/24 00:13:02;;;;;;;4.97;2.40;;;17.90;99.90;;;;;;5061599;28;20135;-71
2023/08/24 00:15:28;;;;;;;5.38;2.20;;;17.80;99.90;;;;;;5080616;28;20049;-70
2023/08/24 00:17:54;;;;;;;4.78;2.72;;;17.80;99.90;;;;;;5060520;28;20053;-70
2023/08/24 00:20:20;;;;;;;5.38;3.08;;;17.80;99.90;;;;;;5080766;28;20128;-70
2023/08/24 00:22:46;;;;;;;7.07;2.67;;;17.80;99.90;;;;;;5027135;28;20083;-70
2023/08/24 00:25:12;;;;;;;4.97;2.20;;;17.80;99.90;;;;;;5061850;28;20044;-70
2023/08/24 00:27:38;;;;;;;3.55;2.50;;;17.80;99.90;;;;;;5078582;28;20052;-70
2023/08/24 00:30:06;;;;;;;3.65;2.33;;;17.70;99.90;;;;;;5061663;28;20067;-70
2023/08/24 00:32:34;;;;;;;3.03;2.30;;;17.70;99.90;;;;;;5062375;28;20044;-70
2023/08/24 00:35:04;;;;;;;5.32;2.50;;;17.60;99.90;;;;;;5077117;28;20123;-71
2023/08/24 00:37:30;;;;;;;7.75;2.53;;;17.50;99.90;;;;;;5080603;28;20041;-71
2023/08/24 00:39:56;;;;;;;4.50;2.80;;;17.50;99.90;;;;;;5078061;28;20040;-69
2023/08/24 00:42:22;;;;;;;2.97;2.47;;;17.50;99.90;;;;;;5045689;28;20054;-70
2023/08/24 00:44:49;;;;;;;5.57;3.30;;;17.50;99.90;;;;;;5059687;28;20833;-71
2023/08/24 00:47:16;;;;;;;6.63;2.75;;;17.50;99.90;;;;;;5042703;28;20061;-71
2023/08/24 00:49:42;;;;;;;3.58;2.20;;;17.50;99.90;;;;;;5078625;28;20395;-70
2023/08/24 00:52:09;;;;;;;3.22;2.38;;;17.50;99.90;;;;;;5076658;28;20064;-70
2023/08/24 00:54:36;;;;;;;2.88;2.22;;;17.50;99.90;;;;;;5060114;28;20055;-70
2023/08/24 00:57:02;;;;;;;2.35;2.10;;;17.40;99.90;;;;;;5076470;28;20037;-70
2023/08/24 00:59:28;;;;;;;4.82;2.90;;;17.40;99.90;;;;;;5043273;28;20060;-70
2023/08/24 01:01:55;;;;;;;5.13;2.92;;;17.40;99.90;;;;;;5077341;28;20131;-69
2023/08/24 01:04:23;;;;;;;4.03;3.20;;;17.30;99.90;;;;;;5077275;28;21026;-70
2023/08/24 01:06:48;;;;;;;4.63;3.00;;;17.20;99.90;;;;;;5059822;28;20052;-70
2023/08/24 01:09:15;;;;;;;7.13;3.00;;;17.20;99.90;;;;;;5076713;28;20052;-70
2023/08/24 01:11:51;;;;;;;9.02;2.90;;;17.40;99.90;;;;;;5077796;28;20115;-71
2023/08/24 01:14:30;;;;;;;5.55;3.05;;;17.40;99.90;;;;;;5058508;28;20058;-70
2023/08/24 01:16:59;;;;;;;7.50;3.30;;;17.40;99.90;;;;;;5059569;28;20418;-70
2023/08/24 01:19:39;;;;;;;4.13;3.28;;;17.30;99.90;;;;;;5059877;28;20040;-70
2023/08/24 01:22:30;;;;;;;7.22;3.70;;;17.30;99.90;;;;;;5058454;28;20044;-70
2023/08/24 01:25:17;;;;;;;3.85;2.85;;;17.20;99.90;;;;;;5059616;28;20036;-70
2023/08/24 01:27:43;;;;;;;3.88;2.70;;;17.20;99.90;;;;;;5077271;28;20082;-70
2023/08/24 01:30:10;;;;;;;3.33;2.63;;;17.20;99.90;;;;;;5076902;28;20048;-70
2023/08/24 01:32:36;;;;;;;4.97;3.10;;;17.20;99.90;;;;;;5060144;28;20147;-70
2023/08/24 01:35:05;;;;;;;6.32;3.05;;;17.20;99.90;;;;;;5076421;28;20051;-70
2023/08/24 01:37:32;;;;;;;5.07;3.42;;;17.20;99.90;;;;;;5059669;28;20099;-70
2023/08/24 01:40:16;;;;;;;4.88;3.10;;;17.20;99.90;;;;;;5041287;28;20047;-70
2023/08/24 01:42:54;;;;;;;7.47;4.07;;;17.20;99.90;;;;;;5059145;28;20114;-69
2023/08/24 01:45:24;;;;;;;7.45;3.83;;;17.10;99.90;;;;;;5042756;28;20108;-69
2023/08/24 01:47:52;;;;;;;8.15;4.13;;;17.10;99.90;;;;;;5076082;28;20074;-70
2023/08/24 01:50:18;;;;;;;5.00;3.88;;;17.10;99.90;;;;;;5042688;28;20105;-70
2023/08/24 01:52:44;;;;;;;5.43;4.18;;;17.10;99.90;;;;;;5057881;28;20128;-70
2023/08/24 01:55:11;;;;;;;6.90;3.95;;;17.20;99.90;;;;;;5077102;28;20044;-70
2023/08/24 01:57:37;;;;;;;5.97;4.18;;;17.30;99.90;;;;;;5058821;28;20080;-70
2023/08/24 02:00:06;;;;;;;6.00;4.47;;;17.30;99.90;;;;;;5076527;28;20125;-70
2023/08/24 02:02:34;;;;;;;8.07;5.32;;;17.30;99.90;;;;;;5077454;28;20051;-70
2023/08/24 02:05:00;;;;;;;11.68;4.95;;;17.30;99.90;;;;;;5057832;28;20051;-70
2023/08/24 02:07:25;;;;;;;7.78;4.68;;;17.30;99.90;;;;;;5077024;28;20052;-70
2023/08/24 02:09:51;;;;;;;6.63;4.70;;;17.30;99.90;;;;;;5057551;28;20052;-70
2023/08/24 02:12:17;;;;;;;5.47;4.75;;;17.20;99.90;;;;;;5042172;28;20044;-71
2023/08/24 02:14:43;;;;;;;7.03;4.70;;;17.30;99.90;;;;;;5058152;28;20045;-70
2023/08/24 02:17:08;;;;;;;9.23;5.25;;;17.30;99.90;;;;;;5041687;28;20048;-70
2023/08/24 02:19:34;;;;;;;6.50;4.57;;;17.40;99.90;;;;;;5042262;28;20048;-70
2023/08/24 02:22:00;;;;;;;10.43;5.22;;;17.40;99.90;;;;;;5040910;28;20053;-70
2023/08/24 02:24:26;;;;;;;8.20;5.35;;;17.40;99.90;;;;;;5076895;28;20040;-71
2023/08/24 02:26:51;;;;;;;8.07;5.45;;;17.40;99.90;;;;;;5075046;28;20044;-70
2023/08/24 02:29:17;;;;;;;8.98;5.68;;;17.50;99.90;;;;;;5058695;28;20040;-70
2023/08/24 02:31:43;;;;;;;8.85;6.03;;;17.40;99.90;;;;;;5057873;28;20105;-71
2023/08/24 02:34:09;;;;;;;11.70;5.93;;;17.40;99.90;;;;;;5058044;28;20052;-71
2023/08/24 02:36:35;;;;;;;7.88;5.82;;;17.30;99.90;;;;;;5042213;28;20037;-70
2023/08/24 02:39:01;;;;;;;10.23;6.40;;;17.30;99.90;;;;;;5075251;28;20106;-70
2023/08/24 02:41:27;;;;;;;9.80;6.18;;;17.30;99.90;;;;;;5077025;28;20143;-70
2023/08/24 02:43:53;;;;;;;12.68;6.13;;;17.30;99.90;;;;;;5053627;28;20061;-70
2023/08/24 02:46:20;;;;;;;9.55;5.63;;;17.40;99.90;;;;;;5055010;28;20052;-71
2023/08/24 02:48:46;;;;;;;11.00;5.72;;;17.40;99.90;;;;;;5055196;28;20057;-71
2023/08/24 02:51:13;;;;;;;9.95;6.18;;;17.40;99.90;;;;;;5038182;28;20060;-70
2023/08/24 02:53:38;;;;;;;6.95;5.50;;;17.30;99.90;;;;;;5054941;28;20049;-70
2023/08/24 02:56:05;;;;;;;8.57;6.00;;;17.30;99.90;;;;;;5053974;28;20179;-70
2023/08/24 02:58:31;;;;;;;8.40;6.13;;;17.30;99.90;;;;;;5058616;28;20099;-70
2023/08/24 03:00:57;;;;;;;9.25;6.22;;;17.30;99.90;;;;;;5057658;28;20071;-71
2023/08/24 03:03:24;;;;;;;10.68;6.43;;;17.30;99.90;;;;;;5042164;28;20060;-71
2023/08/24 03:06:01;;;;;;;13.60;6.35;;;17.20;99.90;;;;;;5041169;28;20078;-71
2023/08/24 03:08:28;;;;;;;11.27;6.93;;;17.20;99.90;;;;;;5059639;28;20041;-71
2023/08/24 03:10:53;;;;;;;10.70;6.88;;;17.20;99.90;;;;;;5059200;28;20072;-71
2023/08/24 03:13:19;;;;;;;11.20;7.32;;;17.20;99.90;;;;;;5058907;28;20068;-71
2023/08/24 03:15:45;;;;;;;13.32;6.78;;;17.20;99.90;;;;;;5059047;28;20138;-71
2023/08/24 03:18:12;;;;;;;10.27;6.43;;;17.10;99.90;;;;;;5057538;28;20045;-71
2023/08/24 03:20:39;;;;;;;11.00;6.97;;;17.10;99.90;;;;;;5042095;28;20104;-71
2023/08/24 03:23:05;;;;;;;9.95;6.18;;;17.10;99.90;;;;;;5040874;28;20045;-70
2023/08/24 03:25:35;;;;;;;10.68;6.57;;;17.10;99.90;;;;;;5057777;28;20132;-71
2023/08/24 03:28:00;;;;;;;9.30;6.70;;;17.10;99.90;;;;;;5060372;28;20049;-70
2023/08/24 03:30:26;;;;;;;10.55;6.47;;;17.10;99.90;;;;;;5057404;28;20091;-70
2023/08/24 03:32:52;;;;;;;14.18;7.18;;;17.00;99.90;;;;;;5060298;28;20037;-70
2023/08/24 03:35:18;;;;;;;11.38;7.13;;;17.00;99.90;;;;;;5057103;28;20063;-70
2023/08/24 03:37:43;;;;;;;13.27;7.22;;;17.00;99.90;;;;;;5059990;28;20064;-70
2023/08/24 03:40:09;;;;;;;11.90;7.38;;;17.00;99.90;;;;;;5059089;28;20041;-70
2023/08/24 03:42:35;;;;;;;15.13;7.38;;;17.00;99.90;;;;;;5058171;28;20044;-70
2023/08/24 03:45:01;;;;;;;10.68;8.02;;;17.00;99.90;;;;;;5074220;28;20064;-70
2023/08/24 03:47:27;;;;;;;12.85;7.55;;;17.00;99.90;;;;;;5060696;28;20059;-70
2023/08/24 03:49:53;;;;;;;12.93;7.18;;;17.00;99.90;;;;;;5061750;28;20036;-70
2023/08/24 03:52:18;;;;;;;17.60;8.10;;;17.00;99.90;;;;;;5078656;28;20075;-71
2023/08/24 03:54:44;;;;;;;11.50;7.63;;;17.00;99.90;;;;;;5061691;28;20045;-71
2023/08/24 03:57:10;;;;;;;10.43;7.32;;;17.00;99.90;;;;;;5060457;28;20045;-70
2023/08/24 03:59:35;;;;;;;11.30;7.50;;;17.00;99.90;;;;;;5061314;28;20055;-70
2023/08/24 04:02:03;;;;;;;13.27;6.88;;;17.00;99.90;;;;;;5079327;28;20508;-70
2023/08/24 04:04:32;;;;;;;12.20;7.45;;;17.00;99.90;;;;;;5060383;28;20100;-71
2023/08/24 04:06:58;;;;;;;11.27;7.13;;;17.00;99.90;;;;;;5061594;28;20052;-69
2023/08/24 04:09:23;;;;;;;15.20;7.85;;;16.90;99.90;;;;;;5078036;28;20048;-71
2023/08/24 04:11:49;;;;;;;9.55;7.63;;;16.90;99.90;;;;;;5079426;28;20097;-69
2023/08/24 04:14:15;;;;;;;12.27;7.00;;;16.80;99.90;;;;;;5059587;28;20074;-70
2023/08/24 04:16:41;;;;;;;12.43;7.25;;;16.80;99.90;;;;;;5060942;28;20055;-70
2023/08/24 04:19:08;;;;;;;8.85;6.57;;;16.80;99.90;;;;;;5060420;28;20048;-70
2023/08/24 04:21:34;;;;;;;9.32;6.70;;;16.70;99.90;;;;;;5078341;28;20123;-70
2023/08/24 04:24:00;;;;;;;10.65;6.93;;;16.70;99.90;;;;;;5079247;28;20438;-69
2023/08/24 04:26:25;;;;;;;12.23;7.32;;;16.80;99.90;;;;;;5059185;28;20051;-69
2023/08/24 04:28:51;;;;;;;10.95;7.25;;;16.70;99.90;;;;;;5078793;28;20512;-69
2023/08/24 04:31:17;;;;;;;14.30;7.28;;;16.70;99.90;;;;;;5042809;28;20048;-69
2023/08/24 04:33:43;;;;;;;9.25;6.07;;;16.70;99.90;;;;;;5078595;28;20043;-70
2023/08/24 04:36:08;;;;;;;8.30;6.43;;;16.60;99.90;;;;;;5026994;28;20048;-70
2023/08/24 04:38:34;;;;;;;12.27;7.28;;;16.60;99.90;;;;;;5059608;28;20080;-69
2023/08/24 04:41:00;;;;;;;13.50;7.05;;;16.60;99.90;;;;;;5078712;28;20037;-69
2023/08/24 04:43:26;;;;;;;11.73;7.30;;;16.60;99.90;;;;;;5058742;28;20102;-69
2023/08/24 04:45:54;;;;;;;8.40;6.65;;;16.60;99.90;;;;;;5043388;28;20106;-69
2023/08/24 04:48:21;;;;;;;8.93;7.20;;;16.60;99.90;;;;;;5076394;28;20139;-69
2023/08/24 04:50:49;;;;;;;9.93;6.13;;;16.60;99.90;;;;;;5060129;28;20052;-69
2023/08/24 04:53:16;;;;;;;10.10;6.50;;;16.50;99.90;;;;;;5077626;28;20051;-69
2023/08/24 04:55:43;;;;;;;9.80;6.18;;;16.50;99.90;;;;;;5025932;28;20072;-69
2023/08/24 04:58:09;;;;;;;10.85;6.50;;;16.60;99.90;;;;;;5043656;28;20055;-69
2023/08/24 05:00:36;;;;;;;10.45;6.97;;;16.60;99.90;;;;;;5076792;28;20040;-69
2023/08/24 05:03:06;;;;;;;8.85;6.13;;;16.60;99.90;;;;;;5059874;28;20044;-70
2023/08/24 05:05:33;;;;;;;11.70;7.05;;;16.70;99.90;;;;;;5076717;28;20040;-70
2023/08/24 05:08:00;;;;;;;12.85;6.95;;;16.60;99.90;;;;;;5077806;28;20048;-69
2023/08/24 05:10:26;;;;;;;10.25;6.72;;;16.70;99.90;;;;;;5077292;28;20048;-70
2023/08/24 05:12:51;;;;;;;9.95;6.43;;;16.80;99.90;;;;;;5076999;28;20044;-69
2023/08/24 05:15:17;;;;;;;11.35;7.20;;;16.80;99.90;;;;;;5078055;28;20040;-69
2023/08/24 05:17:43;;;;;;;11.85;6.53;;;16.80;99.90;;;;;;5075930;28;20098;-69
2023/08/24 05:20:12;;;;;;;9.73;6.00;;;16.80;99.90;;;;;;5077185;28;20045;-69
2023/08/24 05:22:38;;;;;;;11.23;6.22;;;16.80;99.90;;;;;;5042395;28;20100;-69
2023/08/24 05:25:05;;;;;;;11.88;7.75;;;16.90;99.90;;;;;;5058974;28;20111;-69
2023/08/24 05:27:30;;;;;;;10.38;6.13;;;17.00;99.90;;;;;;5076849;28;20052;-69
2023/08/24 05:29:56;;;;;;;7.43;5.63;;;17.10;99.90;;;;;;5041940;28;20123;-69
2023/08/24 05:32:22;;;;;;;10.35;6.00;;;17.20;99.90;;;;;;5042857;28;20044;-69
2023/08/24 05:34:48;;;;;;;11.43;6.15;;;17.30;99.90;;;;;;5076025;28;20123;-68
2023/08/24 05:37:14;;;;;;;10.20;6.00;;;17.40;99.90;;;;;;5077430;28;20488;-71
2023/08/24 05:39:39;;;;;;;11.65;5.50;;;17.50;99.90;;;;;;5076063;28;20048;-72
2023/08/24 05:42:06;;;;;;;9.77;5.82;;;17.50;99.90;;;;;;5077282;28;20071;-70
2023/08/24 05:44:31;;;;;;;11.45;5.88;;;17.60;99.90;;;;;;5058222;28;20056;-70
2023/08/24 05:46:57;;;;;;;9.55;5.45;;;17.70;99.90;;;;;;5076263;28;20045;-71
2023/08/24 05:49:24;;;;;;;10.25;5.60;;;17.80;99.90;;;;;;5059426;28;20044;-71
2023/08/24 05:51:51;;;;;;;9.38;5.53;;;17.80;99.90;;;;;;5075613;28;20511;-71
2023/08/24 05:54:20;;;;;;;10.15;5.65;;;17.80;99.90;;;;;;5061035;28;20037;-70
2023/08/24 05:56:47;;;;;;;8.48;5.88;;;17.90;99.90;;;;;;5056129;28;20049;-72
2023/08/24 05:59:16;;;;;;;7.75;5.47;;;17.90;99.90;;;;;;5077996;28;20127;-72
2023/08/24 06:01:42;;;;;;;12.77;5.80;;;18.00;99.90;;;;;;5059165;28;20067;-73
2023/08/24 06:04:09;;;;;;;14.25;5.15;;;18.10;99.90;;;;;;5057817;28;20044;-73
2023/08/24 06:06:35;;;;;;;10.02;5.28;;;18.10;99.90;;;;;;5059860;28;20045;-70
2023/08/24 06:09:04;;;;;;;7.32;4.78;;;18.10;99.90;;;;;;5058576;28;20045;-72
2023/08/24 06:11:30;;;;;;;8.00;4.95;;;18.20;99.90;;;;;;5078292;28;20074;-72
2023/08/24 06:13:57;;;;;;;15.75;6.03;;;18.20;99.90;;;;;;5058036;28;20353;-70
2023/08/24 06:16:22;;;;;;;10.88;5.05;;;18.30;99.90;;;;;;5058674;28;20037;-70
2023/08/24 06:18:49;;;;;;;9.85;5.43;;;18.30;99.90;;;;;;5058022;28;20052;-70
2023/08/24 06:21:16;;;;;;;9.10;5.25;;;18.40;99.90;;;;;;5058126;28;20132;-70
2023/08/24 06:23:42;;;;;;;14.57;5.45;;;18.50;99.90;;;;;;5077212;28;20123;-72
2023/08/24 06:26:07;;;;;;;8.45;5.25;;;18.40;99.90;;;;;;5057357;28;20144;-71
2023/08/24 06:28:33;;;;;;;7.68;4.97;;;18.40;99.90;;;;;;5077217;28;20044;-72
2023/08/24 06:31:00;;;;;;;11.57;6.40;;;18.50;99.90;;;;;;5075577;28;20475;-71
2023/08/24 06:33:32;;;;;;;11.45;6.00;;;18.50;99.90;;;;;;5062377;28;20189;-71
2023/08/24 06:35:58;;;;;;;;;;;18.70;99.90;;;;;;5063075;28;20981;-70
2023/08/24 06:38:24;;;;;;;8.68;5.55;;;18.70;99.90;;;;;;5029369;28;19936;-68
2023/08/24 06:40:50;;;;;;;8.57;5.13;;;18.80;99.90;;;;;;5081593;28;20040;-66
2023/08/24 06:43:16;;;;;;;12.88;6.50;;;18.80;99.90;;;;;;5080037;28;20048;-67
2023/08/24 06:45:43;;;;;;;12.82;7.25;;;19.00;99.90;;;;;;5059557;28;20143;-73
2023/08/24 06:48:09;;;;;;;13.48;7.35;;;19.10;99.90;;;;;;5058356;28;20051;-72
2023/08/24 06:50:36;;;;;;;10.57;7.65;;;19.10;99.90;;;;;;5059342;28;20029;-73
2023/08/24 06:53:05;;;;;;;11.50;7.82;;;19.10;99.90;;;;;;5060073;28;20049;-73
2023/08/24 06:55:31;;;;;;;13.20;8.18;;;19.20;99.90;;;;;;5058917;28;20045;-73
2023/08/24 06:57:57;;;;;;;12.98;8.05;;;19.10;99.90;;;;;;5050655;28;20129;-71
2023/08/24 07:00:23;;;;;;;11.98;8.23;;;19.20;99.90;;;;;;5046426;28;20041;-73
2023/08/24 07:02:52;;;;;;;20.10;9.75;;;19.40;99.90;;;;;;5044545;28;20048;-74
2023/08/24 07:05:18;;;;;;;15.93;8.90;;;19.40;99.90;;;;;;5038004;28;20085;-73
2023/08/24 07:07:45;;;;;;;14.40;9.23;;;19.30;99.90;;;;;;5022593;28;20730;-73
2023/08/24 07:10:11;;;;;;;13.48;8.32;;;19.40;99.90;;;;;;5039725;28;20053;-73
2023/08/24 07:12:40;;;;;;;12.23;8.70;;;19.50;99.90;;;;;;5039844;28;20084;-68
2023/08/24 07:15:07;;;;;;;16.20;9.90;;;19.60;99.90;;;;;;5040235;28;20084;-73
2023/08/24 07:17:33;;;;;;;12.63;8.07;;;19.70;99.90;;;;;;5037232;28;20049;-73
2023/08/24 07:19:59;;;;;;;18.60;8.98;;;19.70;99.90;;;;;;5040232;28;20053;-73
2023/08/24 07:22:26;;;;;;;14.05;8.80;;;19.70;99.90;;;;;;5043879;28;20044;-73
2023/08/24 07:24:52;;;;;;;14.18;8.40;;;19.80;99.90;;;;;;5022301;28;20057;-78
2023/08/24 07:27:19;;;;;;;13.45;9.45;;;19.80;99.90;;;;;;5038623;28;20237;-78
2023/08/24 07:29:45;;;;;;;14.15;8.32;;;19.80;99.90;;;;;;5021387;28;20105;-76
2023/08/24 07:32:11;;;;;;;10.43;8.25;;;19.80;99.90;;;;;;5038607;28;20045;-77
2023/08/24 07:34:36;;;;;;;14.73;8.52;;;19.90;99.90;;;;;;5037272;28;20045;-77
2023/08/24 07:37:02;;;;;;;20.52;8.75;;;20.00;99.90;;;;;;5039966;28;20068;-77
2023/08/24 07:39:28;;;;;;;11.57;7.97;;;20.10;99.90;;;;;;5036983;28;20049;-76
2023/08/24 07:41:54;;;;;;;14.55;8.52;;;20.20;99.90;;;;;;5038252;28;20069;-78
2023/08/24 07:44:21;;;;;;;14.55;7.85;;;20.20;99.90;;;;;;5044696;28;20092;-77
2023/08/24 07:46:47;;;;;;;14.13;8.75;;;20.20;99.90;;;;;;5059158;28;20045;-78
2023/08/24 07:49:13;;;;;;;14.32;8.63;;;20.40;99.90;;;;;;5041728;28;20044;-78
2023/08/24 07:51:39;;;;;;;16.15;8.18;;;20.30;99.90;;;;;;5058262;28;20045;-78
2023/08/24 07:54:06;;;;;;;16.48;8.35;;;20.50;99.90;;;;;;5058537;28;20116;-78
2023/08/24 07:56:33;;;;;;;11.27;8.10;;;20.50;99.90;;;;;;5058061;28;20127;-77
2023/08/24 07:58:58;;;;;;;11.32;8.30;;;20.60;99.90;;;;;;5059344;28;20048;-78
2023/08/24 08:01:24;;;;;;;15.60;9.23;;;20.60;99.90;;;;;;5056972;28;20083;-77
2023/08/24 08:03:50;;;;;;;16.27;8.85;;;20.60;99.90;;;;;;5057667;28;20044;-77
2023/08/24 08:06:16;;;;;;;12.95;8.85;;;20.60;99.90;;;;;;5057799;28;20072;-78
2023/08/24 08:08:42;;;;;;;12.40;8.40;;;20.70;99.90;;;;;;5058316;28;20128;-82
2023/08/24 08:11:07;;;;;;;12.52;9.25;;;20.80;99.90;;;;;;5058126;28;20045;-83
2023/08/24 08:13:33;;;;;;;13.95;9.45;;;20.90;99.90;;;;;;5063262;28;20052;-78
2023/08/24 08:16:07;;;;;;;14.48;8.90;;;20.80;99.90;;;;;;5079743;28;20052;-81
2023/08/24 08:18:33;;;;;;;13.77;8.73;;;20.80;99.90;;;;;;5078935;28;20053;-80
2023/08/24 08:20:59;;;;;;;16.33;8.80;;;20.90;99.90;;;;;;5062928;28;20049;-81
2023/08/24 08:23:25;;;;;;;15.82;8.50;;;20.90;99.90;;;;;;5048081;28;20041;-81
2023/08/24 08:25:51;;;;;;;13.57;8.98;;;21.00;99.90;;;;;;5079290;28;20104;-78
2023/08/24 08:28:17;;;;;;;14.50;9.13;;;21.10;99.90;;;;;;5061432;28;20083;-80
2023/08/24 08:30:44;;;;;;;13.30;8.07;;;21.10;99.90;;;;;;5077871;28;20036;-79
2023/08/24 08:33:10;;;;;;;13.63;7.65;;;21.30;99.90;;;;;;5061008;28;20119;-80
2023/08/24 08:35:37;;;;;;;14.30;7.57;;;21.40;99.90;;;;;;5059800;28;20047;-79
2023/08/24 08:38:03;;;;;;;11.63;8.00;;;21.40;99.90;;;;;;5078823;28;20059;-78
2023/08/24 08:40:30;;;;;;;11.13;8.32;;;21.40;99.90;;;;;;5027553;28;20056;-79
2023/08/24 08:42:58;;;;;;;13.68;8.32;;;21.40;99.90;;;;;;5077887;28;20583;-79
2023/08/24 08:45:28;;;;;;;14.27;7.88;;;21.60;99.90;;;;;;5079106;28;20122;-79
2023/08/24 08:48:01;;;;;;;13.98;8.18;;;21.60;99.90;;;;;;5077365;28;20060;-78
2023/08/24 08:50:28;;;;;;;15.88;7.05;;;21.70;99.90;;;;;;5060768;28;20544;-78
2023/08/24 08:52:54;;;;;;;14.35;8.30;;;21.90;99.90;;;;;;5059459;28;20067;-78
2023/08/24 08:55:20;;;;;;;11.98;8.07;;;21.90;99.90;;;;;;5073552;28;20040;-80
2023/08/24 08:57:49;;;;;;;11.75;8.40;;;21.90;99.90;;;;;;5078507;28;20045;-78
2023/08/24 09:00:18;;;;;;;12.45;7.38;;;22.00;99.90;;;;;;5077388;28;20051;-79
2023/08/24 09:02:47;;;;;;;12.80;7.80;;;22.00;99.90;;;;;;5078557;28;20037;-80
2023/08/24 09:05:14;;;;;;;13.38;8.27;;;22.10;99.90;;;;;;5059154;28;20081;-79
2023/08/24 09:07:40;;;;;;;12.25;8.15;;;22.20;99.90;;;;;;5078089;28;20047;-79
2023/08/24 09:10:07;;;;;;;15.40;7.82;;;22.20;99.90;;;;;;5042309;28;20052;-78
2023/08/24 09:12:34;;;;;;;13.88;7.30;;;22.30;99.90;;;;;;5059919;28;20428;-79
2023/08/24 09:15:00;;;;;;;16.02;8.05;;;22.40;99.90;;;;;;5078407;28;20052;-80
2023/08/24 09:17:26;;;;;;;11.85;7.82;;;22.30;99.90;;;;;;5077110;28;20040;-78
2023/08/24 09:19:57;;;;;;;11.93;7.88;;;22.40;99.90;;;;;;5078388;28;20048;-79
2023/08/24 09:22:23;;;;;;;15.02;7.05;;;22.40;99.90;;;;;;5076756;28;20186;-79
2023/08/24 09:24:50;;;;;;;12.88;6.97;;;22.50;99.90;;;;;;5059555;28;20064;-79
2023/08/24 09:27:18;;;;;;;8.65;6.80;;;22.50;99.90;;;;;;5076650;28;20052;-79
2023/08/24 09:29:51;;;;;;;10.25;7.03;;;22.70;99.90;;;;;;5077067;28;20053;-82
2023/08/24 09:32:31;;;;;;;12.25;6.70;;;22.70;99.90;;;;;;5078124;28;20123;-79
2023/08/24 09:35:20;;;;;;;8.65;6.10;;;22.90;99.90;;;;;;5076244;28;20044;-79
2023/08/24 09:37:49;;;;;;;11.07;7.00;;;23.10;99.90;;;;;;5077500;28;20521;-83
2023/08/24 09:40:15;;;;;;;12.25;7.90;;;23.00;99.90;;;;;;5058905;28;20109;-78
2023/08/24 09:42:42;;;;;;;10.52;7.30;;;23.10;99.90;;;;;;5058456;28;20037;-79
2023/08/24 09:45:13;;;;;;;11.63;7.25;;;23.10;99.90;;;;;;5075067;28;20929;-80
2023/08/24 09:47:38;;;;;;;12.13;7.30;;;23.10;99.90;;;;;;5057738;28;20052;-80
2023/08/24 09:50:05;;;;;;;11.73;7.75;;;23.10;99.90;;;;;;5076739;28;20609;-81
2023/08/24 09:52:34;;;;;;;10.23;6.95;;;23.10;99.90;;;;;;5040561;28;20032;-81
2023/08/24 09:55:07;;;;;;;9.68;7.45;;;23.10;99.90;;;;;;5076216;28;20037;-77
2023/08/24 09:57:40;;;;;;;12.68;6.97;;;23.00;99.90;;;;;;5076209;28;20372;-71
2023/08/24 10:00:10;;;;;;;9.23;7.50;;;23.10;99.90;;;;;;5075278;28;20058;-78
2023/08/24 10:02:40;;;;;;;12.55;8.00;;;23.10;99.90;;;;;;5076765;28;20100;-75
2023/08/24 10:05:07;;;;;;;11.07;7.28;;;23.10;99.90;;;;;;5074972;28;20121;-75
2023/08/24 10:07:34;;;;;;;10.02;6.60;;;23.10;99.90;;;;;;5075722;28;20102;-74
2023/08/24 10:10:04;;;;;;;8.98;6.32;;;23.10;99.90;;;;;;5057366;28;20450;-76
2023/08/24 10:12:36;;;;;;;12.65;7.13;;;23.10;99.90;;;;;;5075607;28;20100;-74
2023/08/24 10:15:03;;;;;;;;;;;23.10;99.90;;;;;;5072149;28;20049;-73
2023/08/24 10:17:32;;;;;;;13.25;8.60;;;23.10;99.90;;;;;;5039770;28;19963;-77
2023/08/24 10:20:01;;;;;;;11.88;7.25;;;23.10;99.90;;;;;;5076315;28;20502;-73
2023/08/24 10:22:28;;;;;;;11.90;6.97;;;23.10;99.90;;;;;;5056574;28;20052;-74
2023/08/24 10:24:55;;;;;;;9.65;6.63;;;23.10;99.90;;;;;;5057728;28;20057;-74
2023/08/24 10:27:23;;;;;;;11.00;7.20;;;23.10;99.90;;;;;;5057149;28;20048;-75
2023/08/24 10:29:49;;;;;;;18.40;8.55;;;23.00;99.90;;;;;;5057226;28;20055;-74
2023/08/24 10:32:16;;;;;;;11.90;7.82;;;23.00;99.90;;;;;;5058227;28;20072;-75
2023/08/24 10:34:42;;;;;;;14.25;7.03;;;23.10;99.90;;;;;;5040170;28;20060;-72
2023/08/24 10:37:10;;;;;;;11.73;7.45;;;23.00;99.90;;;;;;5054311;28;20037;-76
2023/08/24 10:39:38;;;;;;;14.25;6.80;;;23.10;99.90;;;;;;5069027;28;20044;-75
2023/08/24 10:42:04;;;;;;;21.92;8.43;;;23.10;99.90;;;;;;5076174;28;20048;-75
2023/08/24 10:44:38;;;;;;;15.95;8.13;;;23.10;99.90;;;;;;5073269;28;20324;-75
2023/08/24 10:47:14;;;;;;;13.77;7.85;;;23.10;99.90;;;;;;5057101;28;20071;-74
2023/08/24 10:49:44;;;;;;;14.30;7.95;;;23.10;99.90;;;;;;5058475;28;20527;-75
2023/08/24 10:52:23;;;;;;;17.00;7.97;;;23.10;99.90;;;;;;5074183;28;20518;-74
2023/08/24 10:54:55;;;;;;;15.15;8.25;;;23.10;99.90;;;;;;5058034;28;20478;-72
2023/08/24 10:57:22;;;;;;;11.80;7.63;;;23.10;99.90;;;;;;5056435;28;20041;-73
2023/08/24 11:00:11;;;;;;;12.85;7.60;;;23.10;99.90;;;;;;5040005;28;20044;-75
2023/08/24 11:02:43;;;;;;;12.55;7.60;;;23.20;99.90;;;;;;5074477;28;20040;-74
2023/08/24 11:05:35;;;;;;;10.63;7.35;;;23.20;99.90;;;;;;5056405;28;20106;-75
2023/08/24 11:08:01;;;;;;;14.50;8.65;;;23.30;99.90;;;;;;5075102;28;20086;-75
2023/08/24 11:10:42;;;;;;;13.18;7.97;;;23.30;99.90;;;;;;5075537;28;20044;-75
2023/08/24 11:13:11;;;;;;;18.80;8.55;;;23.40;99.90;;;;;;5073779;28;20059;-74
2023/08/24 11:15:50;;;;;;;9.95;7.65;;;23.40;99.90;;;;;;5057514;28;20059;-74
2023/08/24 11:18:19;;;;;;;17.33;7.60;;;23.50;99.90;;;;;;5057371;28;20040;-76
2023/08/24 11:21:07;;;;;;;14.07;8.13;;;23.60;99.90;;;;;;5078545;28;20052;-75
2023/08/24 11:23:34;;;;;;;11.20;7.57;;;23.60;99.90;;;;;;5039297;28;20424;-73
2023/08/24 11:26:00;;;;;;;8.15;6.57;;;23.70;99.90;;;;;;5077481;28;20105;-74
2023/08/24 11:28:28;;;;;;;11.27;7.15;;;23.70;99.90;;;;;;5061368;28;20056;-73
2023/08/24 11:30:55;;;;;;;11.55;7.03;;;23.70;99.90;;;;;;5077942;28;20048;-76
2023/08/24 11:33:32;;;;;;;12.23;6.28;;;23.70;99.90;;;;;;5079117;28;20048;-75
2023/08/24 11:35:59;;;;;;;8.18;5.78;;;23.70;99.90;;;;;;5060322;28;20048;-72
2023/08/24 11:38:24;;;;;;;9.60;6.38;;;23.60;99.90;;;;;;5060482;28;20070;-71
2023/08/24 11:40:50;;;;;;;8.50;6.00;;;23.70;99.90;;;;;;5044947;28;20072;-82
2023/08/24 11:43:26;;;;;;;12.38;6.45;;;23.70;99.90;;;;;;5043783;28;20392;-74
2023/08/24 11:45:53;;;;;;;11.50;6.85;;;23.80;99.90;;;;;;5057728;28;20059;-80
2023/08/24 11:48:19;;;;;;;13.52;6.15;;;23.80;99.90;;;;;;5056188;28;20052;-73
2023/08/24 11:50:45;;;;;;;10.70;6.65;;;23.90;99.90;;;;;;5058921;28;20093;-76
2023/08/24 11:53:11;;;;;;;8.55;6.63;;;23.90;99.90;;;;;;5057226;28;20080;-72
2023/08/24 11:55:40;;;;;;;9.50;6.50;;;23.90;99.90;;;;;;5023765;28;20049;-74
2023/08/24 11:58:14;;;;;;;14.85;5.95;;;23.90;99.90;;;;;;5059393;28;20041;-76
2023/08/24 12:00:39;;;;;;;9.63;6.00;;;24.00;99.90;;;;;;5057587;28;20053;-77
2023/08/24 12:03:05;;;;;;;10.13;5.30;;;24.00;99.90;;;;;;5058281;28;20033;-80
2023/08/24 12:05:31;;;;;;;11.57;6.05;;;24.00;99.90;;;;;;5057588;28;20041;-80
2023/08/24 12:07:57;;;;;;;8.18;5.63;;;24.00;99.90;;;;;;5052974;28;20041;-79
2023/08/24 12:10:23;;;;;;;8.88;5.50;;;23.90;99.90;;;;;;5037295;28;20084;-79
2023/08/24 12:12:49;;;;;;;7.72;5.47;;;23.90;99.90;;;;;;5020364;28;20264;-81
2023/08/24 12:15:22;;;;;;;7.25;5.18;;;23.90;99.90;;;;;;5038049;28;20101;-78
2023/08/24 12:17:48;;;;;;;9.73;4.95;;;23.90;99.90;;;;;;5037596;28;20038;-79
2023/08/24 12:20:24;;;;;;;8.48;5.10;;;23.80;99.90;;;;;;5039023;28;20129;-79
2023/08/24 12:22:57;;;;;;;8.95;5.07;;;23.90;99.90;;;;;;5036872;28;20037;-78
2023/08/24 12:25:24;;;;;;;7.47;5.35;;;23.90;99.90;;;;;;5037813;28;20045;-78
2023/08/24 12:28:07;;;;;;;10.05;6.03;;;23.90;99.90;;;;;;5039383;28;20057;-75
2023/08/24 12:30:43;;;;;;;10.50;5.32;;;23.90;99.90;;;;;;5037633;28;20063;-79
2023/08/24 12:33:20;;;;;;;8.63;5.75;;;23.90;99.90;;;;;;5037265;28;20049;-78
2023/08/24 12:35:46;;;;;;;8.52;5.80;;;23.80;99.90;;;;;;5036452;28;20520;-80
2023/08/24 12:38:11;;;;;;;11.43;6.18;;;23.90;99.90;;;;;;5038238;28;20075;-80
2023/08/24 12:40:37;;;;;;;8.57;6.47;;;24.00;99.90;;;;;;5020937;28;20054;-77
2023/08/24 12:43:03;;;;;;;10.27;6.78;;;24.10;99.90;;;;;;5035925;28;20081;-78